Time;durP1;ratioP1;P1;durP2;ratioP2;P2;SDS_P1;SDS_P2;PMS_P1;PMS_P2;Temp;Humidity;BMP_temperature;BMP_pressure;BME280_temperature;BME280_humidity;BME280_pressure;Samples;Min_cycle;Max_cycle;Signal;HPM_P1;HPM_P2
2024/04/10 00:00:20;;;;;;;15.10;10.55;;;13.00;99.90;;;;;;5421971;26;20014;-82
2024/04/10 00:02:47;;;;;;;16.20;11.10;;;13.00;99.90;;;;;;5421888;26;20007;-83
2024/04/10 00:05:13;;;;;;;13.82;10.45;;;13.00;99.90;;;;;;5422151;26;20011;-81
2024/04/10 00:07:39;;;;;;;14.15;11.10;;;13.00;99.90;;;;;;5453590;26;20026;-82
2024/04/10 00:10:07;;;;;;;11.43;10.35;;;13.00;99.90;;;;;;5451175;26;20003;-82
2024/04/10 00:12:34;;;;;;;12.73;10.48;;;13.00;99.90;;;;;;5451638;26;20031;-82
2024/04/10 00:15:00;;;;;;;13.50;10.68;;;13.00;99.90;;;;;;5446782;26;20089;-83
2024/04/10 00:17:29;;;;;;;12.15;9.77;;;13.00;99.90;;;;;;5451673;26;20002;-82
2024/04/10 00:19:57;;;;;;;16.65;10.13;;;13.00;99.90;;;;;;5451457;26;19999;-82
2024/04/10 00:22:26;;;;;;;15.68;10.05;;;13.00;99.90;;;;;;5451885;26;19999;-83
2024/04/10 00:24:52;;;;;;;15.40;10.10;;;13.10;99.90;;;;;;5417680;26;20003;-82
2024/04/10 00:27:19;;;;;;;13.65;10.15;;;13.10;99.90;;;;;;5414689;26;19999;-82
2024/04/10 00:29:46;;;;;;;12.35;10.02;;;13.20;99.90;;;;;;5444211;26;20086;-82
2024/04/10 00:32:12;;;;;;;17.70;9.77;;;13.30;99.90;;;;;;5421763;26;20083;-82
2024/04/10 00:34:39;;;;;;;16.23;9.27;;;13.40;99.90;;;;;;5451411;26;20063;-82
2024/04/10 00:37:06;;;;;;;15.43;10.02;;;13.50;99.90;;;;;;5421305;26;20344;-82
2024/04/10 00:39:32;;;;;;;15.93;9.30;;;13.50;99.90;;;;;;5396572;26;20012;-82
2024/04/10 00:41:59;;;;;;;12.50;9.93;;;13.50;99.90;;;;;;5415362;26;20000;-82
2024/04/10 00:44:25;;;;;;;17.05;10.80;;;13.50;99.90;;;;;;5443477;26;20439;-82
2024/04/10 00:46:52;;;;;;;17.42;10.15;;;13.60;99.90;;;;;;5451095;26;20355;-83
2024/04/10 00:49:22;;;;;;;12.60;10.00;;;13.70;99.90;;;;;;5451063;26;20014;-82
2024/04/10 00:51:50;;;;;;;15.75;9.85;;;13.80;99.90;;;;;;5451150;26;20513;-82
2024/04/10 00:54:18;;;;;;;12.02;9.40;;;13.90;99.90;;;;;;5397198;26;20000;-82
2024/04/10 00:56:45;;;;;;;18.83;10.63;;;14.00;99.90;;;;;;5415016;26;19999;-81
2024/04/10 00:59:11;;;;;;;20.27;10.05;;;14.00;99.90;;;;;;5429424;26;20436;-83
2024/04/10 01:01:38;;;;;;;17.02;10.15;;;14.10;99.90;;;;;;5450639;26;20006;-82
2024/04/10 01:04:05;;;;;;;16.98;9.57;;;14.20;99.90;;;;;;5450776;26;20071;-82
2024/04/10 01:06:31;;;;;;;18.00;10.45;;;14.20;99.90;;;;;;5450959;26;20010;-82
2024/04/10 01:08:58;;;;;;;17.35;10.13;;;14.40;99.90;;;;;;5450273;26;20031;-82
2024/04/10 01:11:26;;;;;;;15.68;10.48;;;14.60;99.90;;;;;;5450527;26;20019;-82
2024/04/10 01:13:53;;;;;;;20.75;10.80;;;14.80;99.90;;;;;;5418673;26;20068;-83
2024/04/10 01:16:20;;;;;;;19.30;11.30;;;14.90;99.90;;;;;;5450864;26;20484;-82
2024/04/10 01:18:46;;;;;;;20.42;11.40;;;15.10;99.90;;;;;;5450348;26;19999;-82
2024/04/10 01:21:14;;;;;;;23.92;11.20;;;15.20;99.90;;;;;;5450542;26;20018;-83
2024/04/10 01:23:40;;;;;;;24.30;11.02;;;15.30;99.90;;;;;;5414570;26;20035;-83
2024/04/10 01:26:06;;;;;;;21.92;11.05;;;15.40;99.90;;;;;;5444325;26;20014;-83
2024/04/10 01:28:33;;;;;;;21.00;10.70;;;15.40;99.90;;;;;;5414513;26;20073;-82
2024/04/10 01:31:00;;;;;;;20.25;10.98;;;15.40;99.90;;;;;;5450112;26;20013;-83
2024/04/10 01:33:27;;;;;;;18.75;11.07;;;15.40;99.90;;;;;;5440402;26;20464;-82
2024/04/10 01:35:53;;;;;;;20.23;11.52;;;15.40;99.90;;;;;;5414491;26;20000;-82
2024/04/10 01:38:20;;;;;;;22.00;10.98;;;15.50;99.90;;;;;;5416219;26;20003;-82
2024/04/10 01:40:46;;;;;;;13.18;10.95;;;15.50;99.90;;;;;;5447576;26;20335;-82
2024/04/10 01:43:13;;;;;;;22.40;11.38;;;15.50;99.90;;;;;;5454348;26;20474;-82
2024/04/10 01:45:40;;;;;;;24.90;11.30;;;15.60;99.90;;;;;;5453794;26;20002;-82
2024/04/10 01:48:09;;;;;;;17.10;10.85;;;15.60;99.90;;;;;;5423825;26;20007;-82
2024/04/10 01:50:36;;;;;;;19.20;11.23;;;15.60;99.90;;;;;;5426834;26;20076;-81
2024/04/10 01:53:02;;;;;;;17.85;11.60;;;15.60;99.90;;;;;;5421531;26;20080;-82
2024/04/10 01:55:29;;;;;;;21.80;12.02;;;15.60;99.90;;;;;;5453589;26;20344;-82
2024/04/10 01:57:55;;;;;;;17.92;11.90;;;15.60;99.90;;;;;;5423730;26;20029;-82
2024/04/10 02:00:24;;;;;;;20.02;12.50;;;15.70;99.90;;;;;;5423271;26;19999;-82
2024/04/10 02:02:51;;;;;;;23.50;12.13;;;15.70;99.90;;;;;;5422581;26;20071;-82
2024/04/10 02:05:18;;;;;;;21.55;12.27;;;15.70;99.90;;;;;;5388120;26;19999;-81
2024/04/10 02:07:44;;;;;;;22.75;13.45;;;15.80;99.90;;;;;;5387958;26;20014;-80
2024/04/10 02:10:10;;;;;;;17.63;12.80;;;15.80;99.90;;;;;;5407018;26;20007;-82
2024/04/10 02:12:37;;;;;;;24.52;12.55;;;15.80;99.90;;;;;;5422031;26;20003;-82
2024/04/10 02:15:04;;;;;;;25.77;13.60;;;15.80;99.90;;;;;;5390013;26;20364;-81
2024/04/10 02:17:31;;;;;;;16.70;12.73;;;15.80;99.90;;;;;;5387727;26;20474;-82
2024/04/10 02:19:58;;;;;;;19.67;13.50;;;15.90;99.90;;;;;;5387637;26;20354;-81
2024/04/10 02:22:24;;;;;;;24.40;13.30;;;15.80;99.90;;;;;;5417309;26;20020;-82
2024/04/10 02:24:56;;;;;;;31.42;13.70;;;15.80;99.90;;;;;;5447018;26;20094;-81
2024/04/10 02:27:22;;;;;;;25.10;14.15;;;15.80;99.90;;;;;;5423334;26;19999;-81
2024/04/10 02:29:49;;;;;;;23.23;14.07;;;15.80;99.90;;;;;;5422840;26;20005;-82
2024/04/10 02:32:15;;;;;;;21.27;14.32;;;15.70;99.90;;;;;;5433608;26;20011;-82
2024/04/10 02:34:41;;;;;;;18.50;13.82;;;15.60;99.90;;;;;;5446289;26;19999;-82
2024/04/10 02:37:08;;;;;;;24.30;13.43;;;15.60;99.90;;;;;;5454831;26;20015;-82
2024/04/10 02:39:34;;;;;;;18.85;14.27;;;15.60;99.90;;;;;;5454682;26;19999;-82
2024/04/10 02:42:01;;;;;;;28.60;13.82;;;15.50;99.90;;;;;;5423007;26;20006;-82
2024/04/10 02:44:27;;;;;;;23.02;12.77;;;15.50;99.90;;;;;;5416873;26;20007;-82
2024/04/10 02:46:55;;;;;;;22.98;13.25;;;15.50;99.90;;;;;;5416852;26;20010;-82
2024/04/10 02:49:22;;;;;;;21.30;13.32;;;15.50;99.90;;;;;;5385452;26;20518;-82
2024/04/10 02:51:49;;;;;;;21.60;12.95;;;15.50;99.90;;;;;;5384979;26;20007;-81
2024/04/10 02:54:19;;;;;;;24.92;13.65;;;15.50;99.90;;;;;;5399899;26;19999;-82
2024/04/10 02:56:45;;;;;;;23.13;13.63;;;15.50;99.90;;;;;;5385732;26;20007;-82
2024/04/10 02:59:11;;;;;;;22.42;12.55;;;15.50;99.90;;;;;;5385380;26;20015;-82
2024/04/10 03:01:39;;;;;;;22.80;12.50;;;15.50;99.90;;;;;;5385530;26;20006;-82
2024/04/10 03:04:06;;;;;;;21.13;12.88;;;15.60;99.90;;;;;;5397737;26;20006;-83
2024/04/10 03:06:33;;;;;;;22.48;12.70;;;15.60;99.90;;;;;;5385977;26;20001;-83
2024/04/10 03:09:00;;;;;;;18.35;13.15;;;15.50;99.90;;;;;;5385803;26;19995;-83
2024/04/10 03:11:26;;;;;;;23.13;13.20;;;15.60;99.90;;;;;;5358010;26;20027;-83
2024/04/10 03:13:53;;;;;;;23.08;12.57;;;15.50;99.90;;;;;;5401119;26;20412;-83
2024/04/10 03:16:19;;;;;;;21.88;13.27;;;15.50;99.90;;;;;;5380135;26;20000;-83
2024/04/10 03:18:46;;;;;;;20.35;13.77;;;15.50;99.90;;;;;;5382494;26;20008;-82
2024/04/10 03:21:13;;;;;;;20.52;14.43;;;15.50;99.90;;;;;;5435721;26;20032;-81
2024/04/10 03:23:39;;;;;;;22.45;14.13;;;15.40;99.90;;;;;;5416551;26;20007;-82
2024/04/10 03:26:09;;;;;;;30.17;15.55;;;15.40;99.90;;;;;;5446456;26;20007;-82
2024/04/10 03:28:36;;;;;;;26.88;15.07;;;15.40;99.90;;;;;;5417090;26;20007;-83
2024/04/10 03:31:06;;;;;;;22.92;14.32;;;15.40;99.90;;;;;;5416797;26;19995;-83
2024/04/10 03:33:34;;;;;;;28.13;16.80;;;15.40;99.90;;;;;;5416880;26;19999;-84
2024/04/10 03:36:00;;;;;;;25.10;16.25;;;15.40;99.90;;;;;;5387236;26;20000;-81
2024/04/10 03:38:27;;;;;;;34.67;15.10;;;15.40;99.90;;;;;;5429684;26;19991;-81
2024/04/10 03:40:53;;;;;;;22.35;14.85;;;15.30;99.90;;;;;;5454855;26;20010;-83
2024/04/10 03:43:20;;;;;;;26.10;16.55;;;15.30;99.90;;;;;;5452983;26;20010;-79
2024/04/10 03:45:52;;;;;;;27.98;16.02;;;15.20;99.90;;;;;;5453887;26;20034;-80
2024/04/10 03:48:19;;;;;;;29.35;15.85;;;15.20;99.90;;;;;;5421591;26;20013;-81
2024/04/10 03:50:46;;;;;;;20.25;16.25;;;15.10;99.90;;;;;;5453460;26;20386;-81
2024/04/10 03:53:12;;;;;;;27.02;16.30;;;15.10;99.90;;;;;;5451868;26;20017;-81
2024/04/10 03:55:41;;;;;;;25.48;16.05;;;15.00;99.90;;;;;;5453475;26;20003;-81
2024/04/10 03:58:10;;;;;;;25.17;16.73;;;15.00;99.90;;;;;;5451775;26;20010;-81
2024/04/10 04:00:37;;;;;;;29.33;17.20;;;14.90;99.90;;;;;;5453539;26;20397;-82
2024/04/10 04:03:04;;;;;;;21.52;16.90;;;14.80;99.90;;;;;;5453945;26;20448;-88
2024/04/10 04:05:33;;;;;;;23.38;15.45;;;14.90;99.90;;;;;;5423114;26;20398;-86
2024/04/10 04:08:00;;;;;;;24.38;16.52;;;14.90;99.90;;;;;;5422469;26;20010;-84
2024/04/10 04:10:26;;;;;;;20.35;14.18;;;14.90;99.90;;;;;;5422704;26;20071;-83
2024/04/10 04:12:53;;;;;;;21.00;14.75;;;14.90;99.90;;;;;;5421964;26;20344;-82
2024/04/10 04:15:19;;;;;;;22.45;14.48;;;14.90;99.90;;;;;;5415522;26;20017;-80
2024/04/10 04:17:46;;;;;;;22.65;13.98;;;15.00;99.90;;;;;;5416511;26;20452;-80
2024/04/10 04:20:13;;;;;;;20.08;12.50;;;14.90;99.90;;;;;;5392387;26;20004;-82
2024/04/10 04:22:39;;;;;;;28.67;14.00;;;14.90;99.90;;;;;;5415718;26;20011;-82
2024/04/10 04:25:07;;;;;;;18.20;12.35;;;14.90;99.90;;;;;;5421395;26;20440;-83
2024/04/10 04:27:33;;;;;;;21.90;12.15;;;15.00;99.90;;;;;;5421609;26;20083;-82
2024/04/10 04:30:00;;;;;;;14.35;11.60;;;15.00;99.90;;;;;;5421149;26;20091;-82
2024/04/10 04:32:26;;;;;;;22.35;11.95;;;15.00;99.90;;;;;;5421313;26;20446;-82
2024/04/10 04:34:53;;;;;;;22.08;11.82;;;15.00;99.90;;;;;;5424154;26;20318;-82
2024/04/10 04:37:20;;;;;;;18.73;12.35;;;15.10;99.90;;;;;;5417298;26;20000;-82
2024/04/10 04:39:48;;;;;;;17.77;11.52;;;15.10;99.90;;;;;;5447259;26;20027;-82
2024/04/10 04:42:14;;;;;;;24.05;12.30;;;15.20;99.90;;;;;;5450976;26;19999;-82
2024/04/10 04:44:44;;;;;;;16.88;11.75;;;15.30;99.90;;;;;;5427716;26;20011;-82
2024/04/10 04:47:10;;;;;;;16.60;11.50;;;15.30;99.90;;;;;;5385612;26;20048;-82
2024/04/10 04:49:37;;;;;;;21.38;11.45;;;15.40;99.90;;;;;;5442430;26;20005;-82
2024/04/10 04:52:04;;;;;;;20.55;11.30;;;15.40;99.90;;;;;;5451124;26;20003;-82
2024/04/10 04:54:33;;;;;;;16.33;11.10;;;15.40;99.90;;;;;;5450761;26;19998;-82
2024/04/10 04:57:03;;;;;;;19.52;12.05;;;15.50;99.90;;;;;;5450810;26;19999;-82
2024/04/10 04:59:30;;;;;;;16.65;12.40;;;15.60;99.90;;;;;;5450839;26;20002;-82
2024/04/10 05:01:57;;;;;;;16.73;11.98;;;15.80;99.90;;;;;;5450681;26;20014;-82
2024/04/10 05:07:08;;;;;;;;;;;16.10;99.90;;;;;;5452984;26;19995;-82
2024/04/10 05:09:34;;;;;;;14.90;11.10;;;16.40;99.90;;;;;;5452754;26;19931;-82
2024/04/10 05:12:01;;;;;;;15.82;10.82;;;16.60;99.90;;;;;;5450625;26;20013;-82
2024/04/10 05:14:30;;;;;;;18.90;12.27;;;17.20;99.90;;;;;;5416017;26;20089;-83
2024/04/10 05:17:03;;;;;;;22.05;13.07;;;17.50;99.90;;;;;;5454372;26;20049;-82
2024/04/10 05:19:30;;;;;;;20.05;14.30;;;17.30;99.90;;;;;;5454213;26;20003;-85
2024/04/10 05:21:56;;;;;;;17.17;14.48;;;17.10;99.90;;;;;;5424357;26;20017;-82
2024/04/10 05:24:23;;;;;;;21.05;15.32;;;17.00;99.90;;;;;;5451143;26;20463;-82
2024/04/10 05:26:50;;;;;;;17.23;15.32;;;17.00;99.90;;;;;;5454426;26;20531;-82
2024/04/10 05:29:17;;;;;;;17.50;15.18;;;16.90;99.90;;;;;;5489234;26;20009;-82
2024/04/10 05:31:43;;;;;;;18.63;14.70;;;16.90;99.90;;;;;;5459916;26;19990;-82
2024/04/10 05:34:10;;;;;;;16.63;14.95;;;17.10;99.90;;;;;;5492077;26;20039;-82
2024/04/10 05:36:38;;;;;;;18.55;15.25;;;17.10;99.90;;;;;;5492366;26;19994;-83
2024/04/10 05:39:04;;;;;;;17.17;15.30;;;17.20;99.90;;;;;;5459798;26;20031;-82
2024/04/10 05:41:32;;;;;;;16.85;15.15;;;17.10;99.90;;;;;;5430048;26;19993;-83
2024/04/10 05:44:00;;;;;;;17.15;15.10;;;17.10;99.90;;;;;;5429362;26;20022;-86
2024/04/10 05:46:27;;;;;;;19.20;14.57;;;17.10;99.90;;;;;;5424156;26;20322;-84
2024/04/10 05:48:53;;;;;;;20.77;15.05;;;17.50;99.90;;;;;;5394774;26;20009;-84
2024/04/10 05:51:19;;;;;;;17.38;15.55;;;17.70;99.90;;;;;;5394605;26;19998;-84
2024/04/10 05:53:47;;;;;;;18.63;16.50;;;17.80;99.90;;;;;;5394479;26;19998;-85
2024/04/10 05:56:14;;;;;;;24.83;16.80;;;18.20;99.90;;;;;;5394628;26;20436;-84
2024/04/10 05:58:40;;;;;;;18.92;16.52;;;18.30;99.90;;;;;;5394531;26;20003;-84
2024/04/10 06:01:08;;;;;;;21.50;17.15;;;18.70;99.90;;;;;;5394652;26;20006;-84
2024/04/10 06:03:34;;;;;;;19.52;17.40;;;19.10;99.90;;;;;;5428548;26;20006;-86
2024/04/10 06:06:08;;;;;;;20.80;19.05;;;19.60;99.90;;;;;;5429645;26;19994;-82
2024/04/10 06:08:35;;;;;;;20.20;18.17;;;20.10;99.90;;;;;;5459797;26;20009;-83
2024/04/10 06:11:02;;;;;;;19.30;17.50;;;20.60;99.90;;;;;;5491420;26;19998;-83
2024/04/10 06:13:29;;;;;;;22.50;20.10;;;20.90;99.90;;;;;;5426029;26;20002;-83
2024/04/10 06:16:03;;;;;;;27.52;24.80;;;21.00;99.90;;;;;;5393632;26;19999;-83
2024/04/10 06:18:29;;;;;;;;;;;21.20;99.90;;;;;;5423775;26;20736;-82
2024/04/10 06:21:03;;;;;;;28.95;25.02;;;21.00;99.90;;;;;;5393605;26;20242;-82
2024/04/10 06:23:30;;;;;;;;;;;21.20;99.90;;;;;;5425650;26;20038;-83
2024/04/10 06:25:58;;;;;;;25.88;23.65;;;21.50;99.90;;;;;;5487890;26;19924;-82
2024/04/10 06:28:25;;;;;;;28.75;23.42;;;21.70;99.90;;;;;;5459499;26;20009;-81
2024/04/10 06:31:00;;;;;;;24.58;22.13;;;21.70;99.90;;;;;;5459078;26;20009;-82
2024/04/10 06:33:26;;;;;;;25.48;22.80;;;21.60;99.90;;;;;;5459465;26;20421;-85
2024/04/10 06:35:53;;;;;;;23.98;22.00;;;21.60;99.90;;;;;;5491221;26;20010;-82
2024/04/10 06:38:20;;;;;;;25.25;22.95;;;21.50;99.90;;;;;;5429184;26;19998;-83
2024/04/10 06:40:58;;;;;;;25.42;22.90;;;21.70;99.90;;;;;;5491156;26;20042;-82
2024/04/10 06:43:26;;;;;;;25.42;23.17;;;21.60;99.90;;;;;;5427473;26;20070;-83
2024/04/10 06:45:58;;;;;;;26.92;24.27;;;21.90;99.90;;;;;;5393544;26;20007;-83
2024/04/10 06:48:26;;;;;;;25.60;23.23;;;21.70;99.90;;;;;;5454858;26;20068;-82
2024/04/10 06:50:56;;;;;;;26.15;23.55;;;21.60;99.90;;;;;;5422934;26;19999;-83
2024/04/10 06:53:23;;;;;;;25.27;23.17;;;21.80;99.90;;;;;;5423350;26;20328;-82
2024/04/10 06:56:01;;;;;;;25.48;23.38;;;21.70;99.90;;;;;;5428715;26;20009;-83
2024/04/10 06:58:29;;;;;;;24.95;22.48;;;21.70;99.90;;;;;;5429016;26;20289;-83
2024/04/10 07:01:03;;;;;;;25.70;23.27;;;21.70;99.90;;;;;;5428708;26;19998;-82
2024/04/10 07:03:30;;;;;;;;;;;21.60;99.90;;;;;;5427160;26;20006;-82
2024/04/10 07:06:12;;;;;;;26.08;23.83;;;21.80;99.90;;;;;;5393090;26;19931;-82
2024/04/10 07:08:43;;;;;;;24.27;22.38;;;21.70;99.90;;;;;;5393030;26;20003;-82
2024/04/10 07:11:12;;;;;;;26.33;23.80;;;21.30;99.90;;;;;;5422793;26;20021;-82
2024/04/10 07:13:39;;;;;;;24.38;22.20;;;21.30;99.90;;;;;;5457985;26;20010;-81
2024/04/10 07:16:06;;;;;;;24.63;22.60;;;21.00;99.90;;;;;;5458285;26;20002;-82
2024/04/10 07:18:33;;;;;;;25.35;22.42;;;21.00;99.90;;;;;;5428430;26;20002;-82
2024/04/10 07:21:10;;;;;;;26.13;23.50;;;21.00;99.90;;;;;;5428852;26;20018;-83
2024/04/10 07:23:39;;;;;;;27.30;24.27;;;21.30;99.90;;;;;;5428894;26;20075;-85
2024/04/10 07:26:15;;;;;;;26.55;24.13;;;21.80;99.90;;;;;;5444332;26;20068;-83
2024/04/10 07:28:51;;;;;;;26.75;24.35;;;22.10;99.90;;;;;;5422974;26;19994;-84
2024/04/10 07:31:20;;;;;;;26.90;24.45;;;22.40;99.90;;;;;;5422810;26;20011;-86
2024/04/10 07:33:49;;;;;;;26.00;23.80;;;22.10;99.90;;;;;;5423603;26;20002;-86
2024/04/10 07:36:21;;;;;;;27.08;24.75;;;21.70;99.90;;;;;;5394154;26;20009;-88
2024/04/10 07:38:48;;;;;;;26.67;24.45;;;21.80;99.90;;;;;;5423903;26;20009;-90
2024/04/10 07:41:17;;;;;;;27.60;25.33;;;22.00;99.90;;;;;;5395173;26;19999;-90
2024/04/10 07:43:44;;;;;;;26.83;24.63;;;21.90;99.90;;;;;;5424406;26;19999;-89
2024/04/10 07:46:19;;;;;;;27.63;25.05;;;22.00;99.90;;;;;;5424050;26;20460;-90
2024/04/10 07:49:03;;;;;;;27.75;25.13;;;22.40;99.90;;;;;;5394921;26;20003;-90
2024/04/10 07:51:30;;;;;;;29.88;25.67;;;22.10;99.90;;;;;;5424145;26;20013;-89
2024/04/10 07:53:56;;;;;;;29.23;25.33;;;22.30;99.90;;;;;;5423427;26;20376;-85
2024/04/10 07:56:27;;;;;;;28.67;25.75;;;22.70;99.90;;;;;;5422725;26;19999;-85
2024/04/10 07:58:54;;;;;;;27.50;24.85;;;22.50;99.90;;;;;;5422704;26;20035;-85
2024/04/10 08:01:22;;;;;;;27.67;25.38;;;22.20;99.90;;;;;;5422429;26;20006;-85
2024/04/10 08:03:48;;;;;;;28.50;25.63;;;22.50;99.90;;;;;;5427074;26;21448;-85
2024/04/10 08:06:17;;;;;;;27.70;25.38;;;22.70;99.90;;;;;;5428444;26;20435;-85
2024/04/10 08:08:50;;;;;;;27.67;25.13;;;22.60;99.90;;;;;;5428614;26;20017;-84
2024/04/10 08:11:17;;;;;;;27.38;25.20;;;22.50;99.90;;;;;;5428830;26;19998;-85
2024/04/10 08:13:43;;;;;;;27.95;25.48;;;22.50;99.90;;;;;;5429783;26;20022;-84
2024/04/10 08:16:15;;;;;;;27.30;24.90;;;22.20;99.90;;;;;;5430362;26;20363;-87
2024/04/10 08:18:46;;;;;;;26.60;24.50;;;21.80;99.90;;;;;;5429436;26;20009;-84
2024/04/10 08:21:14;;;;;;;27.73;25.30;;;22.00;99.90;;;;;;5407916;26;19999;-83
2024/04/10 08:23:42;;;;;;;27.50;24.83;;;22.40;99.90;;;;;;5423820;26;20000;-86
2024/04/10 08:26:19;;;;;;;27.52;24.92;;;22.60;99.90;;;;;;5423222;26;20011;-86
2024/04/10 08:28:48;;;;;;;28.80;26.50;;;23.40;99.90;;;;;;5423236;26;19995;-86
2024/04/10 08:31:21;;;;;;;30.23;27.92;;;24.40;99.90;;;;;;5453021;26;20530;-87
2024/04/10 08:33:50;;;;;;;30.38;28.00;;;24.90;99.90;;;;;;5452611;26;20009;-87
2024/04/10 08:36:16;;;;;;;30.90;28.35;;;25.20;99.90;;;;;;5422993;26;20003;-87
2024/04/10 08:38:44;;;;;;;32.65;29.40;;;25.20;99.90;;;;;;5452920;26;20015;-88
2024/04/10 08:41:14;;;;;;;31.38;28.85;;;25.00;99.90;;;;;;5422754;26;20002;-87
2024/04/10 08:43:46;;;;;;;30.27;27.90;;;25.40;99.90;;;;;;5454367;26;20038;-87
2024/04/10 08:46:26;;;;;;;29.48;27.48;;;25.60;99.90;;;;;;5452890;26;20049;-90
2024/04/10 08:48:56;;;;;;;30.50;28.02;;;25.60;99.90;;;;;;5421527;26;19999;-90
2024/04/10 08:51:26;;;;;;;30.35;27.92;;;25.40;99.90;;;;;;5423032;26;20010;-89
2024/04/10 08:53:56;;;;;;;30.42;28.05;;;25.20;99.90;;;;;;5452726;26;20083;-89
2024/04/10 08:56:28;;;;;;;31.23;28.50;;;25.30;99.90;;;;;;5423081;26;20003;-89
2024/04/10 08:58:57;;;;;;;31.15;28.75;;;25.30;99.90;;;;;;5422928;26;20444;-87
2024/04/10 09:01:27;;;;;;;31.05;28.40;;;25.20;99.90;;;;;;5452526;26;19999;-88
2024/04/10 09:04:02;;;;;;;31.33;28.80;;;25.20;99.90;;;;;;5423474;26;20048;-89
2024/04/10 09:06:31;;;;;;;32.58;29.77;;;25.30;99.90;;;;;;5421649;26;20517;-85
2024/04/10 09:09:06;;;;;;;31.80;29.35;;;25.20;99.90;;;;;;5420925;26;20006;-84
2024/04/10 09:11:37;;;;;;;31.73;28.83;;;25.40;99.90;;;;;;5451298;26;20009;-85
2024/04/10 09:14:11;;;;;;;30.83;28.20;;;25.40;99.90;;;;;;5421326;26;19999;-84
2024/04/10 09:16:38;;;;;;;30.65;28.02;;;25.10;99.90;;;;;;5421236;26;19999;-84
2024/04/10 09:19:13;;;;;;;31.10;28.67;;;25.10;99.90;;;;;;5421624;26;20481;-85
2024/04/10 09:21:42;;;;;;;31.33;28.75;;;25.10;99.90;;;;;;5421674;26;19998;-86
2024/04/10 09:24:09;;;;;;;31.73;28.60;;;25.30;99.90;;;;;;5403904;26;20003;-92
2024/04/10 09:26:38;;;;;;;30.38;28.08;;;25.30;99.90;;;;;;5417303;26;20000;-90
2024/04/10 09:29:06;;;;;;;30.98;28.42;;;25.60;99.90;;;;;;5418708;26;20471;-94
2024/04/10 09:31:33;;;;;;;31.15;28.30;;;25.40;99.90;;;;;;5416669;26;20030;-92
2024/04/10 09:34:00;;;;;;;30.98;28.58;;;25.20;99.90;;;;;;5387644;26;20003;-92
2024/04/10 09:36:32;;;;;;;30.83;28.20;;;25.10;99.90;;;;;;5387615;26;20004;-91
2024/04/10 09:39:00;;;;;;;33.40;30.05;;;25.40;99.90;;;;;;5417628;26;20011;-90
2024/04/10 09:41:31;;;;;;;31.77;28.67;;;25.50;99.90;;;;;;5387353;26;20337;-93
2024/04/10 09:44:00;;;;;;;31.55;28.70;;;25.40;99.90;;;;;;5387717;26;20013;-93
2024/04/10 09:46:38;;;;;;;32.15;29.48;;;24.90;99.90;;;;;;5416829;26;20348;-91
2024/04/10 09:49:13;;;;;;;31.05;28.75;;;25.10;99.90;;;;;;5387531;26;20010;-89
2024/04/10 09:51:41;;;;;;;33.55;30.15;;;25.50;99.90;;;;;;5416516;26;20015;-93
2024/04/10 09:54:09;;;;;;;31.17;28.65;;;25.50;99.90;;;;;;5386906;26;20000;-93
2024/04/10 09:56:37;;;;;;;32.60;29.45;;;25.40;99.90;;;;;;5386549;26;20014;-91
2024/04/10 09:59:14;;;;;;;32.47;29.67;;;25.30;99.90;;;;;;5416497;26;20010;-92
2024/04/10 10:01:41;;;;;;;31.83;28.52;;;25.50;99.90;;;;;;5420103;26;20344;-91
2024/04/10 10:04:09;;;;;;;31.35;28.58;;;25.30;99.90;;;;;;5391528;26;20014;-91
2024/04/10 10:06:35;;;;;;;31.92;28.98;;;25.50;99.90;;;;;;5397616;26;20444;-91
2024/04/10 10:09:02;;;;;;;32.67;29.40;;;25.30;99.90;;;;;;5393238;26;20432;-91
2024/04/10 10:11:29;;;;;;;31.98;29.20;;;25.80;99.90;;;;;;5420069;26;20476;-91
2024/04/10 10:14:03;;;;;;;32.70;29.75;;;26.00;99.90;;;;;;5419816;26;19999;-92
2024/04/10 10:16:32;;;;;;;33.40;29.88;;;26.20;99.90;;;;;;5419103;26;19999;-89
2024/04/10 10:19:03;;;;;;;32.60;29.50;;;26.00;99.90;;;;;;5389585;26;20429;-89
2024/04/10 10:21:39;;;;;;;33.05;29.60;;;25.40;99.90;;;;;;5419266;26;20015;-89
2024/04/10 10:24:16;;;;;;;34.72;31.38;;;25.10;99.90;;;;;;5425041;26;20002;-89
2024/04/10 10:26:59;;;;;;;34.05;31.17;;;25.40;99.90;;;;;;5390736;26;20003;-91
2024/04/10 10:29:31;;;;;;;34.83;31.30;;;25.60;99.90;;;;;;5420200;26;20442;-91
2024/04/10 10:32:03;;;;;;;33.67;29.98;;;25.90;99.90;;;;;;5390211;26;20102;-90
2024/04/10 10:34:31;;;;;;;32.42;29.73;;;25.90;99.90;;;;;;5379896;26;20009;-90
2024/04/10 10:37:06;;;;;;;33.13;30.23;;;26.20;99.90;;;;;;5384463;26;20415;-90
2024/04/10 10:39:35;;;;;;;33.15;29.58;;;26.50;99.90;;;;;;5355309;26;20503;-90
2024/04/10 10:42:04;;;;;;;32.47;29.52;;;26.60;99.90;;;;;;5355219;26;20001;-90
2024/04/10 10:44:31;;;;;;;32.55;29.38;;;26.60;99.90;;;;;;5394616;26;20031;-90
2024/04/10 10:47:07;;;;;;;31.83;28.92;;;26.70;99.90;;;;;;5390317;26;20079;-91
2024/04/10 10:49:36;;;;;;;33.13;29.42;;;26.50;99.90;;;;;;5420057;26;20055;-91
2024/04/10 10:52:04;;;;;;;32.47;29.60;;;26.70;99.90;;;;;;5389442;26;20007;-91
2024/04/10 10:54:33;;;;;;;32.78;29.77;;;26.80;99.90;;;;;;5418968;26;20007;-91
2024/04/10 10:57:04;;;;;;;33.22;29.80;;;26.80;99.90;;;;;;5419528;26;20000;-91
2024/04/10 10:59:31;;;;;;;33.05;29.83;;;26.70;99.90;;;;;;5390074;26;20011;-90
2024/04/10 11:02:00;;;;;;;31.65;29.02;;;26.90;99.90;;;;;;5389906;26;20004;-91
2024/04/10 11:04:30;;;;;;;32.58;29.38;;;26.80;99.90;;;;;;5388039;26;20033;-91
2024/04/10 11:07:12;;;;;;;31.35;28.38;;;26.90;99.90;;;;;;5385253;26;20321;-90
2024/04/10 11:09:43;;;;;;;32.03;29.05;;;26.50;99.90;;;;;;5384565;26;20331;-89
2024/04/10 11:12:13;;;;;;;32.67;29.42;;;26.60;99.90;;;;;;5382621;26;20028;-91
2024/04/10 11:14:41;;;;;;;31.38;28.15;;;26.50;99.90;;;;;;5384213;26;20000;-90
2024/04/10 11:17:19;;;;;;;32.15;28.80;;;26.50;99.90;;;;;;5355171;26;20049;-90
2024/04/10 11:19:48;;;;;;;30.45;27.70;;;26.50;99.90;;;;;;5383457;26;20007;-90
2024/04/10 11:22:19;;;;;;;31.17;28.33;;;26.60;99.90;;;;;;5354364;26;19996;-91
2024/04/10 11:24:48;;;;;;;33.25;30.00;;;26.60;99.90;;;;;;5361580;26;20014;-89
2024/04/10 11:27:18;;;;;;;32.53;29.52;;;26.50;99.90;;;;;;5389742;26;20015;-88
2024/04/10 11:29:52;;;;;;;32.70;29.40;;;26.50;99.90;;;;;;5390319;26;20436;-87
2024/04/10 11:32:21;;;;;;;32.35;29.17;;;26.40;99.90;;;;;;5388431;26;19999;-88
2024/04/10 11:34:48;;;;;;;31.83;28.88;;;26.80;99.90;;;;;;5454054;26;20062;-88
2024/04/10 11:37:16;;;;;;;31.88;29.10;;;26.60;99.90;;;;;;5424445;26;19999;-93
2024/04/10 11:39:45;;;;;;;31.85;28.98;;;26.70;99.90;;;;;;5424052;26;20002;-88
2024/04/10 11:42:13;;;;;;;32.28;29.45;;;26.90;99.90;;;;;;5431594;26;19999;-90
2024/04/10 11:44:41;;;;;;;33.67;30.73;;;26.90;99.90;;;;;;5417904;26;20082;-91
2024/04/10 11:47:10;;;;;;;32.78;29.98;;;26.40;99.90;;;;;;5418063;26;20453;-87
2024/04/10 11:49:38;;;;;;;35.45;32.17;;;26.40;99.90;;;;;;5418459;26;20003;-86
2024/04/10 11:52:20;;;;;;;33.00;30.58;;;26.60;99.90;;;;;;5418992;26;20005;-92
2024/04/10 11:54:52;;;;;;;32.40;29.80;;;26.40;99.90;;;;;;5418784;26;20525;-90
2024/04/10 11:57:22;;;;;;;32.92;30.33;;;26.10;99.90;;;;;;5390997;26;20025;-91
2024/04/10 11:59:49;;;;;;;33.80;30.33;;;26.50;99.90;;;;;;5393517;26;20003;-92
2024/04/10 12:02:16;;;;;;;33.55;30.17;;;26.50;99.90;;;;;;5397396;26;19999;-92
2024/04/10 12:04:43;;;;;;;33.42;30.35;;;26.50;99.90;;;;;;5401731;26;20030;-91
2024/04/10 12:07:10;;;;;;;33.55;30.30;;;26.40;99.90;;;;;;5396555;26;20004;-88
2024/04/10 12:09:40;;;;;;;32.63;29.92;;;26.20;99.90;;;;;;5389281;26;20003;-87
2024/04/10 12:12:10;;;;;;;33.45;30.33;;;26.10;99.90;;;;;;5417998;26;20000;-87
2024/04/10 12:14:44;;;;;;;33.00;30.42;;;26.20;99.90;;;;;;5417337;26;19999;-87
2024/04/10 12:17:11;;;;;;;32.42;29.95;;;25.80;99.90;;;;;;5424328;26;20101;-87
2024/04/10 12:19:38;;;;;;;33.47;30.75;;;25.80;99.90;;;;;;5391541;26;20015;-89
2024/04/10 12:22:05;;;;;;;33.25;30.42;;;25.50;99.90;;;;;;5391776;26;19999;-87
2024/04/10 12:24:36;;;;;;;32.90;30.15;;;25.70;99.90;;;;;;5424293;26;20022;-87
2024/04/10 12:27:04;;;;;;;33.15;30.65;;;25.60;99.90;;;;;;5429591;26;19998;-87
2024/04/10 12:29:31;;;;;;;34.05;31.20;;;25.90;99.90;;;;;;5429482;26;20002;-87
2024/04/10 12:31:59;;;;;;;33.80;30.80;;;25.60;99.90;;;;;;5429138;26;20016;-88
2024/04/10 12:34:27;;;;;;;33.17;30.75;;;25.50;99.90;;;;;;5429771;26;20010;-90
2024/04/10 12:39:39;;;;;;;33.13;30.65;;;25.30;99.90;;;;;;5490107;26;20316;-87